sensor_id;sensor_type;location;lat;lon;timestamp;temperature;humidity
44729;DHT22;30457;53.590;9.922;2024-03-23T00:56:54;11.70;58.30
44729;DHT22;30457;53.590;9.922;2024-03-23T01:01:20;11.70;58.20
44729;DHT22;30457;53.590;9.922;2024-03-23T01:05:46;11.60;58.30
44729;DHT22;30457;53.590;9.922;2024-03-23T01:10:11;11.60;58.30
44729;DHT22;30457;53.590;9.922;2024-03-23T01:14:37;11.60;58.40
44729;DHT22;30457;53.590;9.922;2024-03-23T01:19:02;11.60;58.40
44729;DHT22;30457;53.590;9.922;2024-03-23T01:23:28;11.50;58.40
44729;DHT22;30457;53.590;9.922;2024-03-23T01:27:54;11.50;58.30
44729;DHT22;30457;53.590;9.922;2024-03-23T01:32:19;11.50;58.30
44729;DHT22;30457;53.590;9.922;2024-03-23T01:36:45;11.50;58.40
44729;DHT22;30457;53.590;9.922;2024-03-23T01:41:11;11.40;58.30
44729;DHT22;30457;53.590;9.922;2024-03-23T01:45:37;11.40;58.30
44729;DHT22;30457;53.590;9.922;2024-03-23T01:50:03;11.40;58.40
44729;DHT22;30457;53.590;9.922;2024-03-23T01:54:30;11.40;58.50
44729;DHT22;30457;53.590;9.922;2024-03-23T01:58:56;11.40;58.60
44729;DHT22;30457;53.590;9.922;2024-03-23T02:03:26;11.40;58.60
44729;DHT22;30457;53.590;9.922;2024-03-23T02:07:51;11.30;58.60
44729;DHT22;30457;53.590;9.922;2024-03-23T02:12:17;11.30;58.50
44729;DHT22;30457;53.590;9.922;2024-03-23T02:16:43;11.30;58.50
44729;DHT22;30457;53.590;9.922;2024-03-23T02:21:09;11.30;58.50
44729;DHT22;30457;53.590;9.922;2024-03-23T02:25:34;11.20;58.50
44729;DHT22;30457;53.590;9.922;2024-03-23T02:30:00;11.20;58.60
44729;DHT22;30457;53.590;9.922;2024-03-23T02:34:26;11.20;58.70
44729;DHT22;30457;53.590;9.922;2024-03-23T02:38:51;11.20;58.70
44729;DHT22;30457;53.590;9.922;2024-03-23T02:43:17;11.10;58.80
44729;DHT22;30457;53.590;9.922;2024-03-23T02:47:42;11.10;58.80
44729;DHT22;30457;53.590;9.922;2024-03-23T02:52:08;11.10;58.80
44729;DHT22;30457;53.590;9.922;2024-03-23T02:56:34;11.10;58.80
44729;DHT22;30457;53.590;9.922;2024-03-23T03:00:59;11.00;58.70
44729;DHT22;30457;53.590;9.922;2024-03-23T03:05:25;11.00;58.70
44729;DHT22;30457;53.590;9.922;2024-03-23T03:09:50;11.00;58.70
44729;DHT22;30457;53.590;9.922;2024-03-23T03:14:16;10.90;58.80
44729;DHT22;30457;53.590;9.922;2024-03-23T03:18:41;10.90;58.80
44729;DHT22;30457;53.590;9.922;2024-03-23T03:23:07;10.90;59.40
44729;DHT22;30457;53.590;9.922;2024-03-23T03:27:33;10.90;59.00
44729;DHT22;30457;53.590;9.922;2024-03-23T03:31:59;10.90;59.10
44729;DHT22;30457;53.590;9.922;2024-03-23T03:36:25;10.80;59.20
44729;DHT22;30457;53.590;9.922;2024-03-23T03:40:50;10.80;59.10
44729;DHT22;30457;53.590;9.922;2024-03-23T03:45:16;10.80;59.20
44729;DHT22;30457;53.590;9.922;2024-03-23T03:49:41;10.80;59.20
44729;DHT22;30457;53.590;9.922;2024-03-23T03:54:07;10.80;59.10
44729;DHT22;30457;53.590;9.922;2024-03-23T03:58:32;10.80;59.10
44729;DHT22;30457;53.590;9.922;2024-03-23T04:02:58;10.80;59.10
44729;DHT22;30457;53.590;9.922;2024-03-23T04:07:24;10.70;59.20
44729;DHT22;30457;53.590;9.922;2024-03-23T04:11:50;10.70;59.20
44729;DHT22;30457;53.590;9.922;2024-03-23T04:16:29;10.70;59.10
44729;DHT22;30457;53.590;9.922;2024-03-23T04:20:55;10.70;59.20
44729;DHT22;30457;53.590;9.922;2024-03-23T04:25:20;10.70;59.20
44729;DHT22;30457;53.590;9.922;2024-03-23T04:29:50;10.70;59.20
44729;DHT22;30457;53.590;9.922;2024-03-23T04:34:15;10.60;59.20
44729;DHT22;30457;53.590;9.922;2024-03-23T04:38:41;10.60;59.20
44729;DHT22;30457;53.590;9.922;2024-03-23T04:43:07;10.60;59.20
44729;DHT22;30457;53.590;9.922;2024-03-23T04:47:32;10.60;59.30
44729;DHT22;30457;53.590;9.922;2024-03-23T04:51:58;10.60;59.40
44729;DHT22;30457;53.590;9.922;2024-03-23T04:56:23;10.60;59.40
44729;DHT22;30457;53.590;9.922;2024-03-23T05:00:56;10.50;59.40
44729;DHT22;30457;53.590;9.922;2024-03-23T05:05:22;10.50;59.40
44729;DHT22;30457;53.590;9.922;2024-03-23T05:09:48;10.50;59.40
44729;DHT22;30457;53.590;9.922;2024-03-23T05:14:14;10.50;59.40
44729;DHT22;30457;53.590;9.922;2024-03-23T05:18:40;10.50;59.40
44729;DHT22;30457;53.590;9.922;2024-03-23T05:23:06;10.50;59.50
44729;DHT22;30457;53.590;9.922;2024-03-23T05:27:33;10.50;59.50
44729;DHT22;30457;53.590;9.922;2024-03-23T05:31:58;10.40;59.40
44729;DHT22;30457;53.590;9.922;2024-03-23T05:36:24;10.40;59.30
44729;DHT22;30457;53.590;9.922;2024-03-23T05:40:59;10.40;59.30
44729;DHT22;30457;53.590;9.922;2024-03-23T05:45:25;10.40;59.50
44729;DHT22;30457;53.590;9.922;2024-03-23T05:49:51;10.40;59.40
44729;DHT22;30457;53.590;9.922;2024-03-23T05:54:17;10.40;59.50
44729;DHT22;30457;53.590;9.922;2024-03-23T05:58:43;10.40;59.40
44729;DHT22;30457;53.590;9.922;2024-03-23T06:03:09;10.40;59.40
44729;DHT22;30457;53.590;9.922;2024-03-23T06:07:35;10.40;59.40
44729;DHT22;30457;53.590;9.922;2024-03-23T06:12:00;10.40;59.40
44729;DHT22;30457;53.590;9.922;2024-03-23T06:16:26;10.40;59.50
44729;DHT22;30457;53.590;9.922;2024-03-23T06:20:53;10.40;59.50
44729;DHT22;30457;53.590;9.922;2024-03-23T06:25:19;10.40;59.60
44729;DHT22;30457;53.590;9.922;2024-03-23T06:29:44;10.40;59.70
44729;DHT22;30457;53.590;9.922;2024-03-23T06:34:10;10.40;59.80
44729;DHT22;30457;53.590;9.922;2024-03-23T06:38:36;10.50;59.90
44729;DHT22;30457;53.590;9.922;2024-03-23T06:43:03;10.50;59.80
44729;DHT22;30457;53.590;9.922;2024-03-23T06:47:28;10.50;59.80
44729;DHT22;30457;53.590;9.922;2024-03-23T06:51:54;10.60;59.80
44729;DHT22;30457;53.590;9.922;2024-03-23T06:56:19;10.60;59.70
44729;DHT22;30457;53.590;9.922;2024-03-23T07:00:45;10.70;59.70
44729;DHT22;30457;53.590;9.922;2024-03-23T07:05:11;10.70;59.50
44729;DHT22;30457;53.590;9.922;2024-03-23T07:09:36;10.70;59.30
44729;DHT22;30457;53.590;9.922;2024-03-23T07:14:03;10.70;59.30
44729;DHT22;30457;53.590;9.922;2024-03-23T07:18:28;10.70;59.40
44729;DHT22;30457;53.590;9.922;2024-03-23T07:22:54;10.70;59.50
44729;DHT22;30457;53.590;9.922;2024-03-23T07:27:20;10.80;59.60
44729;DHT22;30457;53.590;9.922;2024-03-23T07:31:46;10.90;59.80
44729;DHT22;30457;53.590;9.922;2024-03-23T07:36:11;10.90;60.30
44729;DHT22;30457;53.590;9.922;2024-03-23T07:40:37;11.00;59.50
44729;DHT22;30457;53.590;9.922;2024-03-23T07:45:03;11.00;59.40
44729;DHT22;30457;53.590;9.922;2024-03-23T07:49:29;11.10;59.50
44729;DHT22;30457;53.590;9.922;2024-03-23T07:53:55;11.20;59.60
44729;DHT22;30457;53.590;9.922;2024-03-23T07:58:20;11.40;59.50
44729;DHT22;30457;53.590;9.922;2024-03-23T08:02:46;11.50;59.50
44729;DHT22;30457;53.590;9.922;2024-03-23T08:07:12;11.60;59.30
44729;DHT22;30457;53.590;9.922;2024-03-23T08:11:37;11.80;59.20
44729;DHT22;30457;53.590;9.922;2024-03-23T08:16:05;12.00;59.10
44729;DHT22;30457;53.590;9.922;2024-03-23T08:20:30;12.10;58.70
44729;DHT22;30457;53.590;9.922;2024-03-23T08:24:57;12.30;59.50
44729;DHT22;30457;53.590;9.922;2024-03-23T08:29:23;12.50;58.50
44729;DHT22;30457;53.590;9.922;2024-03-23T08:33:48;12.70;58.00
44729;DHT22;30457;53.590;9.922;2024-03-23T08:38:14;12.80;58.00
44729;DHT22;30457;53.590;9.922;2024-03-23T08:42:39;12.90;57.90
44729;DHT22;30457;53.590;9.922;2024-03-23T08:47:05;13.00;57.60
44729;DHT22;30457;53.590;9.922;2024-03-23T08:51:31;13.20;56.50
44729;DHT22;30457;53.590;9.922;2024-03-23T08:55:57;13.30;56.40
44729;DHT22;30457;53.590;9.922;2024-03-23T09:00:23;13.30;55.40
44729;DHT22;30457;53.590;9.922;2024-03-23T09:04:48;13.40;55.40
44729;DHT22;30457;53.590;9.922;2024-03-23T09:09:14;13.40;55.30
44729;DHT22;30457;53.590;9.922;2024-03-23T09:13:40;13.60;55.20
44729;DHT22;30457;53.590;9.922;2024-03-23T09:18:07;13.70;55.30
44729;DHT22;30457;53.590;9.922;2024-03-23T09:22:32;13.80;55.20
44729;DHT22;30457;53.590;9.922;2024-03-23T09:26:58;14.00;54.70
44729;DHT22;30457;53.590;9.922;2024-03-23T09:31:23;14.10;54.10
44729;DHT22;30457;53.590;9.922;2024-03-23T09:35:49;14.10;53.80
44729;DHT22;30457;53.590;9.922;2024-03-23T09:40:14;14.20;52.70
44729;DHT22;30457;53.590;9.922;2024-03-23T09:44:41;14.30;52.00
44729;DHT22;30457;53.590;9.922;2024-03-23T09:49:09;14.30;51.70
44729;DHT22;30457;53.590;9.922;2024-03-23T09:53:37;14.30;51.80
44729;DHT22;30457;53.590;9.922;2024-03-23T09:58:03;14.30;52.00
44729;DHT22;30457;53.590;9.922;2024-03-23T10:02:30;14.30;50.00
44729;DHT22;30457;53.590;9.922;2024-03-23T10:07:04;14.30;51.30
44729;DHT22;30457;53.590;9.922;2024-03-23T10:11:35;14.20;51.70
44729;DHT22;30457;53.590;9.922;2024-03-23T10:16:01;14.10;51.80
44729;DHT22;30457;53.590;9.922;2024-03-23T10:20:27;14.20;52.10
44729;DHT22;30457;53.590;9.922;2024-03-23T10:24:52;14.30;52.00
44729;DHT22;30457;53.590;9.922;2024-03-23T10:29:19;14.40;51.20
44729;DHT22;30457;53.590;9.922;2024-03-23T10:33:45;14.50;50.70
44729;DHT22;30457;53.590;9.922;2024-03-23T10:38:11;14.50;50.20
44729;DHT22;30457;53.590;9.922;2024-03-23T10:42:38;14.40;50.00
44729;DHT22;30457;53.590;9.922;2024-03-23T10:47:04;14.30;49.70
44729;DHT22;30457;53.590;9.922;2024-03-23T10:51:30;14.30;49.50
44729;DHT22;30457;53.590;9.922;2024-03-23T10:55:56;14.30;50.10
44729;DHT22;30457;53.590;9.922;2024-03-23T11:00:22;14.30;50.20
44729;DHT22;30457;53.590;9.922;2024-03-23T11:04:48;14.40;49.40
44729;DHT22;30457;53.590;9.922;2024-03-23T11:09:39;14.50;50.00
44729;DHT22;30457;53.590;9.922;2024-03-23T11:14:22;14.50;48.70
44729;DHT22;30457;53.590;9.922;2024-03-23T11:18:49;14.60;48.60
44729;DHT22;30457;53.590;9.922;2024-03-23T11:23:28;14.70;47.90
44729;DHT22;30457;53.590;9.922;2024-03-23T11:27:58;14.80;48.10
44729;DHT22;30457;53.590;9.922;2024-03-23T11:32:24;14.90;47.30
44729;DHT22;30457;53.590;9.922;2024-03-23T11:36:50;15.00;45.90
44729;DHT22;30457;53.590;9.922;2024-03-23T11:41:18;15.00;46.50
44729;DHT22;30457;53.590;9.922;2024-03-23T11:45:49;15.10;47.30
44729;DHT22;30457;53.590;9.922;2024-03-23T11:50:20;15.30;45.50
44729;DHT22;30457;53.590;9.922;2024-03-23T11:54:45;15.40;45.30
44729;DHT22;30457;53.590;9.922;2024-03-23T11:59:11;15.40;46.40
44729;DHT22;30457;53.590;9.922;2024-03-23T12:03:36;15.40;44.70
44729;DHT22;30457;53.590;9.922;2024-03-23T12:08:33;15.10;43.80
44729;DHT22;30457;53.590;9.922;2024-03-23T12:13:00;14.70;44.10
44729;DHT22;30457;53.590;9.922;2024-03-23T12:17:26;14.30;45.20
44729;DHT22;30457;53.590;9.922;2024-03-23T12:21:52;13.90;46.20
44729;DHT22;30457;53.590;9.922;2024-03-23T12:26:17;13.60;47.20
44729;DHT22;30457;53.590;9.922;2024-03-23T12:30:43;13.50;48.80
44729;DHT22;30457;53.590;9.922;2024-03-23T12:35:09;13.50;48.50
44729;DHT22;30457;53.590;9.922;2024-03-23T12:39:35;13.40;48.40
44729;DHT22;30457;53.590;9.922;2024-03-23T12:44:00;13.30;47.70
44729;DHT22;30457;53.590;9.922;2024-03-23T12:48:26;13.00;48.20
44729;DHT22;30457;53.590;9.922;2024-03-23T12:52:51;12.70;48.60
44729;DHT22;30457;53.590;9.922;2024-03-23T12:57:17;12.40;49.20
44729;DHT22;30457;53.590;9.922;2024-03-23T13:01:43;12.20;50.00
44729;DHT22;30457;53.590;9.922;2024-03-23T13:06:09;12.20;50.20
44729;DHT22;30457;53.590;9.922;2024-03-23T13:10:34;12.10;50.40
44729;DHT22;30457;53.590;9.922;2024-03-23T13:15:00;12.10;51.20
44729;DHT22;30457;53.590;9.922;2024-03-23T13:19:26;12.10;51.40
44729;DHT22;30457;53.590;9.922;2024-03-23T13:23:52;12.10;51.30
44729;DHT22;30457;53.590;9.922;2024-03-23T13:28:18;12.20;51.80
44729;DHT22;30457;53.590;9.922;2024-03-23T13:32:43;12.20;51.90
44729;DHT22;30457;53.590;9.922;2024-03-23T13:37:09;12.30;52.40
44729;DHT22;30457;53.590;9.922;2024-03-23T13:41:35;12.50;53.10
44729;DHT22;30457;53.590;9.922;2024-03-23T13:46:00;12.70;53.60
44729;DHT22;30457;53.590;9.922;2024-03-23T13:50:27;13.00;53.50
44729;DHT22;30457;53.590;9.922;2024-03-23T13:54:52;13.30;53.40
44729;DHT22;30457;53.590;9.922;2024-03-23T13:59:18;13.50;52.50
44729;DHT22;30457;53.590;9.922;2024-03-23T14:03:44;13.60;49.90
44729;DHT22;30457;53.590;9.922;2024-03-23T14:08:10;13.70;49.80
44729;DHT22;30457;53.590;9.922;2024-03-23T14:12:36;13.80;50.20
44729;DHT22;30457;53.590;9.922;2024-03-23T14:17:02;13.90;50.10
44729;DHT22;30457;53.590;9.922;2024-03-23T14:21:28;14.00;50.20
44729;DHT22;30457;53.590;9.922;2024-03-23T14:25:54;14.10;50.10
44729;DHT22;30457;53.590;9.922;2024-03-23T14:30:20;14.30;49.00
44729;DHT22;30457;53.590;9.922;2024-03-23T14:34:45;14.30;48.60
44729;DHT22;30457;53.590;9.922;2024-03-23T14:39:12;14.40;49.10
44729;DHT22;30457;53.590;9.922;2024-03-23T14:43:38;14.40;48.10
44729;DHT22;30457;53.590;9.922;2024-03-23T14:48:03;14.40;48.00
44729;DHT22;30457;53.590;9.922;2024-03-23T14:52:34;14.30;48.20
44729;DHT22;30457;53.590;9.922;2024-03-23T14:56:59;14.20;48.30
44729;DHT22;30457;53.590;9.922;2024-03-23T15:01:25;14.10;48.30
44729;DHT22;30457;53.590;9.922;2024-03-23T15:05:58;13.90;47.60
44729;DHT22;30457;53.590;9.922;2024-03-23T15:10:25;13.70;48.20
44729;DHT22;30457;53.590;9.922;2024-03-23T15:14:51;13.50;48.20
44729;DHT22;30457;53.590;9.922;2024-03-23T15:19:16;13.40;48.80
44729;DHT22;30457;53.590;9.922;2024-03-23T15:23:42;13.30;49.20
44729;DHT22;30457;53.590;9.922;2024-03-23T15:28:09;13.20;49.20
44729;DHT22;30457;53.590;9.922;2024-03-23T15:32:35;13.20;49.20
44729;DHT22;30457;53.590;9.922;2024-03-23T15:37:00;13.10;49.70
44729;DHT22;30457;53.590;9.922;2024-03-23T15:41:26;13.10;49.70
44729;DHT22;30457;53.590;9.922;2024-03-23T15:45:59;13.10;50.00
44729;DHT22;30457;53.590;9.922;2024-03-23T15:50:27;13.00;50.00
44729;DHT22;30457;53.590;9.922;2024-03-23T15:54:52;13.00;50.00
44729;DHT22;30457;53.590;9.922;2024-03-23T15:59:18;13.00;50.60
44729;DHT22;30457;53.590;9.922;2024-03-23T16:03:43;13.10;50.70
44729;DHT22;30457;53.590;9.922;2024-03-23T16:08:09;13.10;50.00
44729;DHT22;30457;53.590;9.922;2024-03-23T16:12:35;13.00;50.10
44729;DHT22;30457;53.590;9.922;2024-03-23T16:17:00;13.10;50.40
44729;DHT22;30457;53.590;9.922;2024-03-23T16:21:26;13.00;50.10
44729;DHT22;30457;53.590;9.922;2024-03-23T16:25:54;12.90;50.10
44729;DHT22;30457;53.590;9.922;2024-03-23T16:30:23;12.90;50.30
44729;DHT22;30457;53.590;9.922;2024-03-23T16:34:48;12.90;50.00
44729;DHT22;30457;53.590;9.922;2024-03-23T16:39:14;12.80;49.90
44729;DHT22;30457;53.590;9.922;2024-03-23T16:43:41;12.80;50.10
44729;DHT22;30457;53.590;9.922;2024-03-23T16:48:07;12.70;50.40
44729;DHT22;30457;53.590;9.922;2024-03-23T16:52:32;12.60;50.20
44729;DHT22;30457;53.590;9.922;2024-03-23T16:56:59;12.50;50.40
44729;DHT22;30457;53.590;9.922;2024-03-23T17:01:24;12.40;50.60
44729;DHT22;30457;53.590;9.922;2024-03-23T17:05:52;12.40;50.40
44729;DHT22;30457;53.590;9.922;2024-03-23T17:10:19;12.40;50.60
44729;DHT22;30457;53.590;9.922;2024-03-23T17:14:44;12.30;50.10
44729;DHT22;30457;53.590;9.922;2024-03-23T17:19:10;12.30;50.00
44729;DHT22;30457;53.590;9.922;2024-03-23T17:23:36;12.20;49.90
44729;DHT22;30457;53.590;9.922;2024-03-23T17:28:01;12.20;49.80
44729;DHT22;30457;53.590;9.922;2024-03-23T17:32:30;12.10;50.00
44729;DHT22;30457;53.590;9.922;2024-03-23T17:36:56;12.00;49.90
44729;DHT22;30457;53.590;9.922;2024-03-23T17:41:22;12.00;50.20
44729;DHT22;30457;53.590;9.922;2024-03-23T17:45:50;11.90;50.30
44729;DHT22;30457;53.590;9.922;2024-03-23T17:50:16;11.90;50.50
44729;DHT22;30457;53.590;9.922;2024-03-23T17:54:41;11.80;50.40
44729;DHT22;30457;53.590;9.922;2024-03-23T17:59:07;11.80;50.40
44729;DHT22;30457;53.590;9.922;2024-03-23T18:03:33;11.70;50.60
44729;DHT22;30457;53.590;9.922;2024-03-23T18:07:59;11.70;50.80
44729;DHT22;30457;53.590;9.922;2024-03-23T18:12:25;11.60;50.90
44729;DHT22;30457;53.590;9.922;2024-03-23T18:16:50;11.60;51.10
44729;DHT22;30457;53.590;9.922;2024-03-23T18:21:16;11.50;51.30
44729;DHT22;30457;53.590;9.922;2024-03-23T18:25:51;11.50;51.50
44729;DHT22;30457;53.590;9.922;2024-03-23T18:30:17;11.40;51.70
44729;DHT22;30457;53.590;9.922;2024-03-23T18:34:43;11.30;51.90
44729;DHT22;30457;53.590;9.922;2024-03-23T18:39:09;11.20;51.90
44729;DHT22;30457;53.590;9.922;2024-03-23T18:43:34;11.20;52.10
44729;DHT22;30457;53.590;9.922;2024-03-23T18:48:01;11.10;52.30
44729;DHT22;30457;53.590;9.922;2024-03-23T18:52:26;11.10;52.40
44729;DHT22;30457;53.590;9.922;2024-03-23T18:56:52;11.00;52.60
44729;DHT22;30457;53.590;9.922;2024-03-23T19:01:18;10.90;52.70
44729;DHT22;30457;53.590;9.922;2024-03-23T19:05:52;10.90;52.80
44729;DHT22;30457;53.590;9.922;2024-03-23T19:10:18;10.80;53.20
44729;DHT22;30457;53.590;9.922;2024-03-23T19:14:46;10.90;53.50
44729;DHT22;30457;53.590;9.922;2024-03-23T19:19:12;10.80;53.40
44729;DHT22;30457;53.590;9.922;2024-03-23T19:23:37;10.70;53.50
44729;DHT22;30457;53.590;9.922;2024-03-23T19:28:04;10.60;53.40
44729;DHT22;30457;53.590;9.922;2024-03-23T19:32:31;10.60;53.60
44729;DHT22;30457;53.590;9.922;2024-03-23T19:36:57;10.50;53.80
44729;DHT22;30457;53.590;9.922;2024-03-23T19:41:22;10.40;54.00
44729;DHT22;30457;53.590;9.922;2024-03-23T19:45:49;10.40;54.20
44729;DHT22;30457;53.590;9.922;2024-03-23T19:50:15;10.30;54.40
44729;DHT22;30457;53.590;9.922;2024-03-23T19:54:41;10.30;54.80
44729;DHT22;30457;53.590;9.922;2024-03-23T19:59:06;10.20;55.00
44729;DHT22;30457;53.590;9.922;2024-03-23T20:03:32;10.20;55.10
44729;DHT22;30457;53.590;9.922;2024-03-23T20:07:57;10.20;55.10
44729;DHT22;30457;53.590;9.922;2024-03-23T20:12:23;10.10;55.30
44729;DHT22;30457;53.590;9.922;2024-03-23T20:16:49;10.10;55.20
44729;DHT22;30457;53.590;9.922;2024-03-23T20:21:14;10.10;55.20
44729;DHT22;30457;53.590;9.922;2024-03-23T20:25:40;10.00;55.20
44729;DHT22;30457;53.590;9.922;2024-03-23T20:30:06;10.00;55.20
44729;DHT22;30457;53.590;9.922;2024-03-23T20:34:32;10.00;55.30
44729;DHT22;30457;53.590;9.922;2024-03-23T20:38:58;9.90;55.20
44729;DHT22;30457;53.590;9.922;2024-03-23T20:43:24;9.90;55.20
44729;DHT22;30457;53.590;9.922;2024-03-23T20:47:49;9.80;55.30
44729;DHT22;30457;53.590;9.922;2024-03-23T20:52:15;9.80;55.40
44729;DHT22;30457;53.590;9.922;2024-03-23T20:56:43;9.70;55.20
44729;DHT22;30457;53.590;9.922;2024-03-23T21:01:08;9.70;55.40
44729;DHT22;30457;53.590;9.922;2024-03-23T21:05:35;9.60;55.40
44729;DHT22;30457;53.590;9.922;2024-03-23T21:10:00;9.60;55.40
44729;DHT22;30457;53.590;9.922;2024-03-23T21:14:26;9.50;55.30
44729;DHT22;30457;53.590;9.922;2024-03-23T21:18:51;9.50;55.40
44729;DHT22;30457;53.590;9.922;2024-03-23T21:23:17;9.40;55.40
44729;DHT22;30457;53.590;9.922;2024-03-23T21:27:42;9.40;55.50
44729;DHT22;30457;53.590;9.922;2024-03-23T21:32:08;9.40;55.50
44729;DHT22;30457;53.590;9.922;2024-03-23T21:36:33;9.30;55.50
44729;DHT22;30457;53.590;9.922;2024-03-23T21:40:59;9.30;55.60
44729;DHT22;30457;53.590;9.922;2024-03-23T21:45:25;9.20;55.60
44729;DHT22;30457;53.590;9.922;2024-03-23T21:49:51;9.20;55.70
44729;DHT22;30457;53.590;9.922;2024-03-23T21:54:16;9.20;55.80
44729;DHT22;30457;53.590;9.922;2024-03-23T21:58:42;9.10;55.80
44729;DHT22;30457;53.590;9.922;2024-03-23T22:03:08;9.10;55.90
44729;DHT22;30457;53.590;9.922;2024-03-23T22:07:33;9.10;55.90
44729;DHT22;30457;53.590;9.922;2024-03-23T22:11:59;9.10;55.90
44729;DHT22;30457;53.590;9.922;2024-03-23T22:16:25;9.00;55.90
44729;DHT22;30457;53.590;9.922;2024-03-23T22:25:23;9.00;56.20
44729;DHT22;30457;53.590;9.922;2024-03-23T22:29:49;9.00;56.00
44729;DHT22;30457;53.590;9.922;2024-03-23T22:34:14;9.00;56.00
44729;DHT22;30457;53.590;9.922;2024-03-23T22:38:40;8.90;56.00
44729;DHT22;30457;53.590;9.922;2024-03-23T22:43:05;8.90;56.00
44729;DHT22;30457;53.590;9.922;2024-03-23T22:47:31;8.90;56.00
44729;DHT22;30457;53.590;9.922;2024-03-23T22:51:57;8.90;56.00
44729;DHT22;30457;53.590;9.922;2024-03-23T22:56:22;8.90;56.10
44729;DHT22;30457;53.590;9.922;2024-03-23T23:00:49;8.80;56.10
44729;DHT22;30457;53.590;9.922;2024-03-23T23:05:15;8.70;56.10
44729;DHT22;30457;53.590;9.922;2024-03-23T23:09:40;8.80;56.10
44729;DHT22;30457;53.590;9.922;2024-03-23T23:14:06;8.70;56.10
44729;DHT22;30457;53.590;9.922;2024-03-23T23:18:32;8.60;56.10
44729;DHT22;30457;53.590;9.922;2024-03-23T23:22:58;8.70;56.20
44729;DHT22;30457;53.590;9.922;2024-03-23T23:27:24;8.60;56.20
44729;DHT22;30457;53.590;9.922;2024-03-23T23:31:50;8.60;56.20
44729;DHT22;30457;53.590;9.922;2024-03-23T23:36:16;8.60;56.30
44729;DHT22;30457;53.590;9.922;2024-03-23T23:40:42;8.50;56.20
44729;DHT22;30457;53.590;9.922;2024-03-23T23:45:08;8.50;56.70
44729;DHT22;30457;53.590;9.922;2024-03-23T23:49:36;8.50;56.30
44729;DHT22;30457;53.590;9.922;2024-03-23T23:54:02;8.50;56.40
44729;DHT22;30457;53.590;9.922;2024-03-23T23:58:27;8.40;56.30
